sensor_id;sensor_type;location;lat;lon;timestamp;temperature;humidity
80937;DHT22;70395;51.382;7.074;2023-07-31T00:01:48;18.70;74.60
80937;DHT22;70395;51.382;7.074;2023-07-31T00:04:14;18.70;74.70
80937;DHT22;70395;51.382;7.074;2023-07-31T00:06:39;18.70;74.60
80937;DHT22;70395;51.382;7.074;2023-07-31T00:09:05;18.70;74.60
80937;DHT22;70395;51.382;7.074;2023-07-31T00:11:31;18.70;74.60
80937;DHT22;70395;51.382;7.074;2023-07-31T00:13:57;18.70;74.70
80937;DHT22;70395;51.382;7.074;2023-07-31T00:16:23;18.70;74.90
80937;DHT22;70395;51.382;7.074;2023-07-31T00:18:49;18.70;74.80
80937;DHT22;70395;51.382;7.074;2023-07-31T00:21:15;18.70;74.50
80937;DHT22;70395;51.382;7.074;2023-07-31T00:23:41;18.70;74.60
80937;DHT22;70395;51.382;7.074;2023-07-31T00:26:06;18.70;74.50
80937;DHT22;70395;51.382;7.074;2023-07-31T00:28:32;18.80;74.60
80937;DHT22;70395;51.382;7.074;2023-07-31T00:30:58;18.70;74.60
80937;DHT22;70395;51.382;7.074;2023-07-31T00:33:23;18.80;74.70
80937;DHT22;70395;51.382;7.074;2023-07-31T00:35:49;18.80;74.60
80937;DHT22;70395;51.382;7.074;2023-07-31T00:38:15;18.80;74.60
80937;DHT22;70395;51.382;7.074;2023-07-31T00:40:41;18.80;74.50
80937;DHT22;70395;51.382;7.074;2023-07-31T00:43:06;18.80;74.50
80937;DHT22;70395;51.382;7.074;2023-07-31T00:45:32;18.80;74.30
80937;DHT22;70395;51.382;7.074;2023-07-31T00:47:59;18.80;74.20
80937;DHT22;70395;51.382;7.074;2023-07-31T00:50:25;18.80;74.40
80937;DHT22;70395;51.382;7.074;2023-07-31T00:52:51;18.80;74.40
80937;DHT22;70395;51.382;7.074;2023-07-31T00:55:17;18.80;74.30
80937;DHT22;70395;51.382;7.074;2023-07-31T00:57:45;18.80;74.20
80937;DHT22;70395;51.382;7.074;2023-07-31T01:00:11;18.80;74.10
80937;DHT22;70395;51.382;7.074;2023-07-31T01:02:37;18.80;74.00
80937;DHT22;70395;51.382;7.074;2023-07-31T01:05:04;18.80;74.20
80937;DHT22;70395;51.382;7.074;2023-07-31T01:07:45;18.80;73.80
80937;DHT22;70395;51.382;7.074;2023-07-31T01:10:28;18.80;74.00
80937;DHT22;70395;51.382;7.074;2023-07-31T01:12:59;18.80;74.00
80937;DHT22;70395;51.382;7.074;2023-07-31T01:15:25;18.80;73.90
80937;DHT22;70395;51.382;7.074;2023-07-31T01:17:51;18.80;73.70
80937;DHT22;70395;51.382;7.074;2023-07-31T01:20:25;18.80;73.70
80937;DHT22;70395;51.382;7.074;2023-07-31T01:28:07;18.80;73.40
80937;DHT22;70395;51.382;7.074;2023-07-31T01:30:43;18.80;73.50
80937;DHT22;70395;51.382;7.074;2023-07-31T01:33:12;18.80;73.30
80937;DHT22;70395;51.382;7.074;2023-07-31T01:35:44;18.80;73.20
80937;DHT22;70395;51.382;7.074;2023-07-31T01:38:11;18.90;73.30
80937;DHT22;70395;51.382;7.074;2023-07-31T01:40:37;18.80;73.00
80937;DHT22;70395;51.382;7.074;2023-07-31T01:43:06;18.90;73.20
80937;DHT22;70395;51.382;7.074;2023-07-31T01:45:32;18.90;73.00
80937;DHT22;70395;51.382;7.074;2023-07-31T01:47:58;18.90;73.20
80937;DHT22;70395;51.382;7.074;2023-07-31T01:50:23;18.90;72.90
80937;DHT22;70395;51.382;7.074;2023-07-31T01:52:49;18.90;72.80
80937;DHT22;70395;51.382;7.074;2023-07-31T01:55:15;18.90;72.80
80937;DHT22;70395;51.382;7.074;2023-07-31T01:57:41;18.90;72.70
80937;DHT22;70395;51.382;7.074;2023-07-31T02:00:07;18.90;72.70
80937;DHT22;70395;51.382;7.074;2023-07-31T02:02:33;18.90;72.80
80937;DHT22;70395;51.382;7.074;2023-07-31T02:04:59;18.90;72.70
80937;DHT22;70395;51.382;7.074;2023-07-31T02:07:24;18.90;72.70
80937;DHT22;70395;51.382;7.074;2023-07-31T02:09:50;18.90;72.40
80937;DHT22;70395;51.382;7.074;2023-07-31T02:12:16;18.90;72.40
80937;DHT22;70395;51.382;7.074;2023-07-31T02:14:42;18.90;72.30
80937;DHT22;70395;51.382;7.074;2023-07-31T02:17:08;18.90;72.20
80937;DHT22;70395;51.382;7.074;2023-07-31T02:19:34;18.90;72.20
80937;DHT22;70395;51.382;7.074;2023-07-31T02:21:59;18.80;71.90
80937;DHT22;70395;51.382;7.074;2023-07-31T02:24:25;18.90;72.00
80937;DHT22;70395;51.382;7.074;2023-07-31T02:26:51;18.90;72.00
80937;DHT22;70395;51.382;7.074;2023-07-31T02:29:16;18.80;71.60
80937;DHT22;70395;51.382;7.074;2023-07-31T02:31:42;18.80;71.60
80937;DHT22;70395;51.382;7.074;2023-07-31T02:34:08;18.80;71.60
80937;DHT22;70395;51.382;7.074;2023-07-31T02:36:34;18.80;71.60
80937;DHT22;70395;51.382;7.074;2023-07-31T02:38:59;18.80;71.50
80937;DHT22;70395;51.382;7.074;2023-07-31T02:41:25;18.90;71.80
80937;DHT22;70395;51.382;7.074;2023-07-31T02:43:51;18.90;71.50
80937;DHT22;70395;51.382;7.074;2023-07-31T02:46:19;18.90;71.50
80937;DHT22;70395;51.382;7.074;2023-07-31T02:48:45;18.90;71.40
80937;DHT22;70395;51.382;7.074;2023-07-31T02:51:11;18.80;71.10
80937;DHT22;70395;51.382;7.074;2023-07-31T02:53:37;18.90;71.00
80937;DHT22;70395;51.382;7.074;2023-07-31T02:56:03;18.80;71.00
80937;DHT22;70395;51.382;7.074;2023-07-31T02:58:28;18.90;71.20
80937;DHT22;70395;51.382;7.074;2023-07-31T03:00:54;18.90;71.10
80937;DHT22;70395;51.382;7.074;2023-07-31T03:03:20;18.90;71.10
80937;DHT22;70395;51.382;7.074;2023-07-31T03:05:46;18.90;71.00
80937;DHT22;70395;51.382;7.074;2023-07-31T03:08:11;18.90;71.10
80937;DHT22;70395;51.382;7.074;2023-07-31T03:10:43;18.90;71.10
80937;DHT22;70395;51.382;7.074;2023-07-31T03:13:09;18.90;71.20
80937;DHT22;70395;51.382;7.074;2023-07-31T03:15:35;18.90;71.10
80937;DHT22;70395;51.382;7.074;2023-07-31T03:18:00;18.90;71.20
80937;DHT22;70395;51.382;7.074;2023-07-31T03:20:26;18.90;71.20
80937;DHT22;70395;51.382;7.074;2023-07-31T03:22:52;18.90;71.10
80937;DHT22;70395;51.382;7.074;2023-07-31T03:25:18;18.90;71.40
80937;DHT22;70395;51.382;7.074;2023-07-31T03:27:43;18.90;71.20
80937;DHT22;70395;51.382;7.074;2023-07-31T03:30:09;18.90;71.10
80937;DHT22;70395;51.382;7.074;2023-07-31T03:32:35;19.00;71.10
80937;DHT22;70395;51.382;7.074;2023-07-31T03:35:01;19.00;71.30
80937;DHT22;70395;51.382;7.074;2023-07-31T03:37:27;19.00;71.20
80937;DHT22;70395;51.382;7.074;2023-07-31T03:39:54;19.00;71.30
80937;DHT22;70395;51.382;7.074;2023-07-31T03:42:20;19.00;71.20
80937;DHT22;70395;51.382;7.074;2023-07-31T03:44:46;19.00;71.20
80937;DHT22;70395;51.382;7.074;2023-07-31T03:47:11;19.00;71.20
80937;DHT22;70395;51.382;7.074;2023-07-31T03:49:37;19.00;71.20
80937;DHT22;70395;51.382;7.074;2023-07-31T03:52:03;19.10;71.20
80937;DHT22;70395;51.382;7.074;2023-07-31T03:54:29;19.10;71.10
80937;DHT22;70395;51.382;7.074;2023-07-31T03:56:55;19.10;70.90
80937;DHT22;70395;51.382;7.074;2023-07-31T03:59:21;19.10;70.90
80937;DHT22;70395;51.382;7.074;2023-07-31T04:01:47;19.10;71.10
80937;DHT22;70395;51.382;7.074;2023-07-31T04:04:12;19.20;71.20
80937;DHT22;70395;51.382;7.074;2023-07-31T04:06:38;19.20;71.30
80937;DHT22;70395;51.382;7.074;2023-07-31T04:09:04;19.20;71.10
80937;DHT22;70395;51.382;7.074;2023-07-31T04:11:30;19.20;71.20
80937;DHT22;70395;51.382;7.074;2023-07-31T04:13:55;19.20;71.10
80937;DHT22;70395;51.382;7.074;2023-07-31T04:16:21;19.20;70.90
80937;DHT22;70395;51.382;7.074;2023-07-31T04:18:47;19.30;71.00
80937;DHT22;70395;51.382;7.074;2023-07-31T04:21:13;19.30;71.00
80937;DHT22;70395;51.382;7.074;2023-07-31T04:23:39;19.30;71.00
80937;DHT22;70395;51.382;7.074;2023-07-31T04:26:04;19.30;70.80
80937;DHT22;70395;51.382;7.074;2023-07-31T04:28:30;19.30;70.80
80937;DHT22;70395;51.382;7.074;2023-07-31T04:30:57;19.30;70.60
80937;DHT22;70395;51.382;7.074;2023-07-31T04:33:23;19.30;70.60
80937;DHT22;70395;51.382;7.074;2023-07-31T04:35:50;19.40;70.90
80937;DHT22;70395;51.382;7.074;2023-07-31T04:38:18;19.40;71.10
80937;DHT22;70395;51.382;7.074;2023-07-31T04:40:45;19.40;70.90
80937;DHT22;70395;51.382;7.074;2023-07-31T04:43:11;19.40;71.00
80937;DHT22;70395;51.382;7.074;2023-07-31T04:45:36;19.40;71.20
80937;DHT22;70395;51.382;7.074;2023-07-31T04:48:02;19.40;71.20
80937;DHT22;70395;51.382;7.074;2023-07-31T04:50:28;19.40;71.40
80937;DHT22;70395;51.382;7.074;2023-07-31T04:52:55;19.40;71.20
80937;DHT22;70395;51.382;7.074;2023-07-31T04:55:22;19.40;71.20
80937;DHT22;70395;51.382;7.074;2023-07-31T04:57:47;19.40;71.30
80937;DHT22;70395;51.382;7.074;2023-07-31T05:00:13;19.40;71.30
80937;DHT22;70395;51.382;7.074;2023-07-31T05:02:39;19.40;71.50
80937;DHT22;70395;51.382;7.074;2023-07-31T05:05:05;19.40;71.60
80937;DHT22;70395;51.382;7.074;2023-07-31T05:07:31;19.40;71.60
80937;DHT22;70395;51.382;7.074;2023-07-31T05:09:57;19.40;71.60
80937;DHT22;70395;51.382;7.074;2023-07-31T05:12:22;19.40;71.60
80937;DHT22;70395;51.382;7.074;2023-07-31T05:14:48;19.50;71.80
80937;DHT22;70395;51.382;7.074;2023-07-31T05:17:14;19.50;71.80
80937;DHT22;70395;51.382;7.074;2023-07-31T05:19:40;19.50;71.70
80937;DHT22;70395;51.382;7.074;2023-07-31T05:22:05;19.60;71.60
80937;DHT22;70395;51.382;7.074;2023-07-31T05:24:31;19.60;71.70
80937;DHT22;70395;51.382;7.074;2023-07-31T05:26:57;19.60;71.60
80937;DHT22;70395;51.382;7.074;2023-07-31T05:29:23;19.70;71.70
80937;DHT22;70395;51.382;7.074;2023-07-31T05:31:48;19.70;71.40
80937;DHT22;70395;51.382;7.074;2023-07-31T05:34:14;19.70;71.40
80937;DHT22;70395;51.382;7.074;2023-07-31T05:36:40;19.70;71.20
80937;DHT22;70395;51.382;7.074;2023-07-31T05:39:06;19.80;71.20
80937;DHT22;70395;51.382;7.074;2023-07-31T05:41:35;19.70;70.90
80937;DHT22;70395;51.382;7.074;2023-07-31T05:44:01;19.70;71.00
80937;DHT22;70395;51.382;7.074;2023-07-31T05:46:27;19.70;71.20
80937;DHT22;70395;51.382;7.074;2023-07-31T05:48:52;19.70;71.20
80937;DHT22;70395;51.382;7.074;2023-07-31T05:51:18;19.70;71.30
80937;DHT22;70395;51.382;7.074;2023-07-31T05:53:44;19.80;71.40
80937;DHT22;70395;51.382;7.074;2023-07-31T05:56:10;19.80;71.50
80937;DHT22;70395;51.382;7.074;2023-07-31T05:58:36;19.70;71.30
80937;DHT22;70395;51.382;7.074;2023-07-31T06:01:01;19.70;71.30
80937;DHT22;70395;51.382;7.074;2023-07-31T06:03:27;19.80;71.30
80937;DHT22;70395;51.382;7.074;2023-07-31T06:05:53;19.70;71.20
80937;DHT22;70395;51.382;7.074;2023-07-31T06:08:19;19.80;71.40
80937;DHT22;70395;51.382;7.074;2023-07-31T06:10:44;19.80;71.20
80937;DHT22;70395;51.382;7.074;2023-07-31T06:13:10;19.80;71.10
80937;DHT22;70395;51.382;7.074;2023-07-31T06:15:36;19.80;71.30
80937;DHT22;70395;51.382;7.074;2023-07-31T06:18:02;19.80;71.30
80937;DHT22;70395;51.382;7.074;2023-07-31T06:20:28;19.80;71.10
80937;DHT22;70395;51.382;7.074;2023-07-31T06:22:54;19.90;71.20
80937;DHT22;70395;51.382;7.074;2023-07-31T06:25:20;19.90;71.00
80937;DHT22;70395;51.382;7.074;2023-07-31T06:27:46;20.00;71.00
80937;DHT22;70395;51.382;7.074;2023-07-31T06:30:12;19.90;70.90
80937;DHT22;70395;51.382;7.074;2023-07-31T06:32:37;19.90;70.80
80937;DHT22;70395;51.382;7.074;2023-07-31T06:35:03;20.00;70.70
80937;DHT22;70395;51.382;7.074;2023-07-31T06:37:30;20.00;71.10
80937;DHT22;70395;51.382;7.074;2023-07-31T06:39:55;20.00;71.20
80937;DHT22;70395;51.382;7.074;2023-07-31T06:42:21;20.00;71.30
80937;DHT22;70395;51.382;7.074;2023-07-31T06:44:47;20.00;71.30
80937;DHT22;70395;51.382;7.074;2023-07-31T06:47:13;20.00;71.40
80937;DHT22;70395;51.382;7.074;2023-07-31T06:49:39;20.00;71.30
80937;DHT22;70395;51.382;7.074;2023-07-31T06:52:05;20.10;71.20
80937;DHT22;70395;51.382;7.074;2023-07-31T06:54:31;20.00;71.10
80937;DHT22;70395;51.382;7.074;2023-07-31T06:56:56;20.00;71.20
80937;DHT22;70395;51.382;7.074;2023-07-31T06:59:22;20.00;71.40
80937;DHT22;70395;51.382;7.074;2023-07-31T07:01:48;20.00;71.40
80937;DHT22;70395;51.382;7.074;2023-07-31T07:04:14;19.90;71.40
80937;DHT22;70395;51.382;7.074;2023-07-31T07:06:40;19.90;71.70
80937;DHT22;70395;51.382;7.074;2023-07-31T07:09:06;19.90;71.50
80937;DHT22;70395;51.382;7.074;2023-07-31T07:11:31;19.90;71.60
80937;DHT22;70395;51.382;7.074;2023-07-31T07:13:57;19.90;71.80
80937;DHT22;70395;51.382;7.074;2023-07-31T07:16:23;19.90;72.30
80937;DHT22;70395;51.382;7.074;2023-07-31T07:18:49;19.90;72.40
80937;DHT22;70395;51.382;7.074;2023-07-31T07:21:14;19.90;72.30
80937;DHT22;70395;51.382;7.074;2023-07-31T07:23:42;19.90;72.30
80937;DHT22;70395;51.382;7.074;2023-07-31T07:26:08;19.90;72.30
80937;DHT22;70395;51.382;7.074;2023-07-31T07:28:34;19.90;72.10
80937;DHT22;70395;51.382;7.074;2023-07-31T07:30:59;19.90;72.30
80937;DHT22;70395;51.382;7.074;2023-07-31T07:33:25;19.90;72.40
80937;DHT22;70395;51.382;7.074;2023-07-31T07:35:51;19.90;72.30
80937;DHT22;70395;51.382;7.074;2023-07-31T07:38:17;20.00;72.50
80937;DHT22;70395;51.382;7.074;2023-07-31T07:40:45;20.00;72.60
80937;DHT22;70395;51.382;7.074;2023-07-31T07:43:13;19.90;72.20
80937;DHT22;70395;51.382;7.074;2023-07-31T07:45:39;20.00;72.20
80937;DHT22;70395;51.382;7.074;2023-07-31T07:48:05;19.90;72.30
80937;DHT22;70395;51.382;7.074;2023-07-31T07:50:31;19.90;72.30
80937;DHT22;70395;51.382;7.074;2023-07-31T07:52:57;19.90;72.70
80937;DHT22;70395;51.382;7.074;2023-07-31T07:55:23;19.90;72.80
80937;DHT22;70395;51.382;7.074;2023-07-31T07:57:49;19.90;72.70
80937;DHT22;70395;51.382;7.074;2023-07-31T08:00:16;20.00;72.80
80937;DHT22;70395;51.382;7.074;2023-07-31T08:02:43;20.00;73.10
80937;DHT22;70395;51.382;7.074;2023-07-31T08:05:09;20.00;72.30
80937;DHT22;70395;51.382;7.074;2023-07-31T08:07:35;20.00;72.30
80937;DHT22;70395;51.382;7.074;2023-07-31T08:10:01;20.10;72.50
80937;DHT22;70395;51.382;7.074;2023-07-31T08:12:27;20.10;72.40
80937;DHT22;70395;51.382;7.074;2023-07-31T08:14:53;20.10;72.30
80937;DHT22;70395;51.382;7.074;2023-07-31T08:17:18;20.10;72.30
80937;DHT22;70395;51.382;7.074;2023-07-31T08:19:44;20.10;72.50
80937;DHT22;70395;51.382;7.074;2023-07-31T08:22:11;20.10;72.70
80937;DHT22;70395;51.382;7.074;2023-07-31T08:24:37;20.10;72.70
80937;DHT22;70395;51.382;7.074;2023-07-31T08:27:03;20.10;72.70
80937;DHT22;70395;51.382;7.074;2023-07-31T08:29:29;20.20;72.90
80937;DHT22;70395;51.382;7.074;2023-07-31T08:31:54;20.20;72.70
80937;DHT22;70395;51.382;7.074;2023-07-31T08:34:20;20.30;72.90
80937;DHT22;70395;51.382;7.074;2023-07-31T08:36:46;20.30;72.60
80937;DHT22;70395;51.382;7.074;2023-07-31T08:39:12;20.30;72.00
80937;DHT22;70395;51.382;7.074;2023-07-31T08:41:38;20.40;71.90
80937;DHT22;70395;51.382;7.074;2023-07-31T08:44:07;20.40;71.80
80937;DHT22;70395;51.382;7.074;2023-07-31T08:46:34;20.40;71.40
80937;DHT22;70395;51.382;7.074;2023-07-31T08:49:04;20.40;71.50
80937;DHT22;70395;51.382;7.074;2023-07-31T08:51:36;20.40;71.80
80937;DHT22;70395;51.382;7.074;2023-07-31T08:54:02;20.30;71.50
80937;DHT22;70395;51.382;7.074;2023-07-31T08:56:32;20.30;71.50
80937;DHT22;70395;51.382;7.074;2023-07-31T08:59:02;20.30;71.70
80937;DHT22;70395;51.382;7.074;2023-07-31T09:01:30;20.30;71.60
80937;DHT22;70395;51.382;7.074;2023-07-31T09:04:02;20.30;71.80
80937;DHT22;70395;51.382;7.074;2023-07-31T09:06:30;20.30;72.10
80937;DHT22;70395;51.382;7.074;2023-07-31T09:08:57;20.30;72.00
80937;DHT22;70395;51.382;7.074;2023-07-31T09:11:24;20.40;72.10
80937;DHT22;70395;51.382;7.074;2023-07-31T09:13:52;20.40;72.40
80937;DHT22;70395;51.382;7.074;2023-07-31T09:16:18;20.40;72.00
80937;DHT22;70395;51.382;7.074;2023-07-31T09:18:54;20.40;72.10
80937;DHT22;70395;51.382;7.074;2023-07-31T09:21:23;20.40;71.80
80937;DHT22;70395;51.382;7.074;2023-07-31T09:23:50;20.40;71.70
80937;DHT22;70395;51.382;7.074;2023-07-31T09:26:36;20.40;71.80
80937;DHT22;70395;51.382;7.074;2023-07-31T09:29:06;20.40;72.00
80937;DHT22;70395;51.382;7.074;2023-07-31T09:31:43;20.40;72.10
80937;DHT22;70395;51.382;7.074;2023-07-31T09:34:10;20.40;72.20
80937;DHT22;70395;51.382;7.074;2023-07-31T09:36:50;20.40;72.30
80937;DHT22;70395;51.382;7.074;2023-07-31T09:39:17;20.40;72.20
80937;DHT22;70395;51.382;7.074;2023-07-31T09:41:48;20.50;72.30
80937;DHT22;70395;51.382;7.074;2023-07-31T09:44:20;20.50;72.30
80937;DHT22;70395;51.382;7.074;2023-07-31T09:46:46;20.60;71.80
80937;DHT22;70395;51.382;7.074;2023-07-31T09:49:13;20.60;71.90
80937;DHT22;70395;51.382;7.074;2023-07-31T09:51:42;20.60;71.90
80937;DHT22;70395;51.382;7.074;2023-07-31T09:54:12;20.70;72.20
80937;DHT22;70395;51.382;7.074;2023-07-31T09:56:43;20.70;72.80
80937;DHT22;70395;51.382;7.074;2023-07-31T09:59:13;20.70;72.40
80937;DHT22;70395;51.382;7.074;2023-07-31T10:01:46;20.80;72.20
80937;DHT22;70395;51.382;7.074;2023-07-31T10:04:13;20.90;71.80
80937;DHT22;70395;51.382;7.074;2023-07-31T10:06:40;20.90;72.00
80937;DHT22;70395;51.382;7.074;2023-07-31T10:09:11;20.90;71.60
80937;DHT22;70395;51.382;7.074;2023-07-31T10:11:47;21.00;71.60
80937;DHT22;70395;51.382;7.074;2023-07-31T10:14:21;21.00;71.00
80937;DHT22;70395;51.382;7.074;2023-07-31T10:16:51;21.00;71.50
80937;DHT22;70395;51.382;7.074;2023-07-31T10:19:19;21.10;71.40
80937;DHT22;70395;51.382;7.074;2023-07-31T10:21:47;21.10;71.10
80937;DHT22;70395;51.382;7.074;2023-07-31T10:24:15;21.10;71.60
80937;DHT22;70395;51.382;7.074;2023-07-31T10:26:45;21.10;71.10
80937;DHT22;70395;51.382;7.074;2023-07-31T10:29:13;21.10;70.60
80937;DHT22;70395;51.382;7.074;2023-07-31T10:31:41;21.10;70.60
80937;DHT22;70395;51.382;7.074;2023-07-31T10:34:08;21.10;70.40
80937;DHT22;70395;51.382;7.074;2023-07-31T10:36:34;21.10;70.40
80937;DHT22;70395;51.382;7.074;2023-07-31T10:38:59;21.00;70.60
80937;DHT22;70395;51.382;7.074;2023-07-31T10:41:30;20.90;70.40
80937;DHT22;70395;51.382;7.074;2023-07-31T10:44:01;20.90;70.40
80937;DHT22;70395;51.382;7.074;2023-07-31T10:46:29;20.80;70.80
80937;DHT22;70395;51.382;7.074;2023-07-31T10:49:02;20.80;71.30
80937;DHT22;70395;51.382;7.074;2023-07-31T10:51:35;20.70;71.20
80937;DHT22;70395;51.382;7.074;2023-07-31T10:54:15;20.70;71.60
80937;DHT22;70395;51.382;7.074;2023-07-31T10:56:46;20.60;71.50
80937;DHT22;70395;51.382;7.074;2023-07-31T10:59:16;20.60;72.00
80937;DHT22;70395;51.382;7.074;2023-07-31T11:01:56;20.60;71.70
80937;DHT22;70395;51.382;7.074;2023-07-31T11:04:24;20.60;72.20
80937;DHT22;70395;51.382;7.074;2023-07-31T11:06:59;20.60;72.30
80937;DHT22;70395;51.382;7.074;2023-07-31T11:09:30;20.60;72.00
80937;DHT22;70395;51.382;7.074;2023-07-31T11:11:59;20.60;72.10
80937;DHT22;70395;51.382;7.074;2023-07-31T11:14:25;20.70;72.00
80937;DHT22;70395;51.382;7.074;2023-07-31T11:16:51;20.70;72.20
80937;DHT22;70395;51.382;7.074;2023-07-31T11:19:26;20.70;72.10
80937;DHT22;70395;51.382;7.074;2023-07-31T11:21:53;20.70;72.40
80937;DHT22;70395;51.382;7.074;2023-07-31T11:24:19;20.70;72.10
80937;DHT22;70395;51.382;7.074;2023-07-31T11:26:50;20.80;72.00
80937;DHT22;70395;51.382;7.074;2023-07-31T11:29:17;20.80;72.00
80937;DHT22;70395;51.382;7.074;2023-07-31T11:31:44;20.90;72.50
80937;DHT22;70395;51.382;7.074;2023-07-31T11:34:12;20.90;72.50
80937;DHT22;70395;51.382;7.074;2023-07-31T11:36:38;20.90;72.20
80937;DHT22;70395;51.382;7.074;2023-07-31T11:39:10;21.00;71.80
80937;DHT22;70395;51.382;7.074;2023-07-31T11:41:40;21.00;71.60
80937;DHT22;70395;51.382;7.074;2023-07-31T11:44:06;21.10;71.60
80937;DHT22;70395;51.382;7.074;2023-07-31T11:46:32;21.10;71.90
80937;DHT22;70395;51.382;7.074;2023-07-31T11:49:01;21.20;71.70
80937;DHT22;70395;51.382;7.074;2023-07-31T11:51:28;21.20;71.40
80937;DHT22;70395;51.382;7.074;2023-07-31T11:53:57;21.20;71.50
80937;DHT22;70395;51.382;7.074;2023-07-31T11:56:26;21.30;71.40
80937;DHT22;70395;51.382;7.074;2023-07-31T11:58:58;21.30;71.70
80937;DHT22;70395;51.382;7.074;2023-07-31T12:01:28;21.40;72.00
80937;DHT22;70395;51.382;7.074;2023-07-31T12:03:55;21.50;71.70
80937;DHT22;70395;51.382;7.074;2023-07-31T12:06:22;21.60;71.60
80937;DHT22;70395;51.382;7.074;2023-07-31T12:09:04;21.70;71.50
80937;DHT22;70395;51.382;7.074;2023-07-31T12:11:31;21.80;71.00
80937;DHT22;70395;51.382;7.074;2023-07-31T12:13:57;21.90;70.50
80937;DHT22;70395;51.382;7.074;2023-07-31T12:16:26;21.90;70.10
80937;DHT22;70395;51.382;7.074;2023-07-31T12:18:53;22.00;70.00
80937;DHT22;70395;51.382;7.074;2023-07-31T12:21:19;22.00;69.90
80937;DHT22;70395;51.382;7.074;2023-07-31T12:23:45;22.00;69.60
80937;DHT22;70395;51.382;7.074;2023-07-31T12:26:15;22.00;69.60
80937;DHT22;70395;51.382;7.074;2023-07-31T12:28:46;22.00;69.40
80937;DHT22;70395;51.382;7.074;2023-07-31T12:31:18;21.90;69.30
80937;DHT22;70395;51.382;7.074;2023-07-31T12:33:48;21.90;68.80
80937;DHT22;70395;51.382;7.074;2023-07-31T12:36:17;21.80;69.00
80937;DHT22;70395;51.382;7.074;2023-07-31T12:38:45;21.70;69.00
80937;DHT22;70395;51.382;7.074;2023-07-31T12:41:12;21.70;69.40
80937;DHT22;70395;51.382;7.074;2023-07-31T12:43:39;21.60;69.20
80937;DHT22;70395;51.382;7.074;2023-07-31T12:46:07;21.60;69.20
80937;DHT22;70395;51.382;7.074;2023-07-31T12:48:34;21.60;69.20
80937;DHT22;70395;51.382;7.074;2023-07-31T12:51:02;21.60;69.30
80937;DHT22;70395;51.382;7.074;2023-07-31T12:53:28;21.60;70.40
80937;DHT22;70395;51.382;7.074;2023-07-31T12:55:58;21.60;69.60
80937;DHT22;70395;51.382;7.074;2023-07-31T12:58:24;21.60;70.00
80937;DHT22;70395;51.382;7.074;2023-07-31T13:00:50;21.60;69.80
80937;DHT22;70395;51.382;7.074;2023-07-31T13:03:16;21.60;70.00
80937;DHT22;70395;51.382;7.074;2023-07-31T13:05:42;21.60;69.60
80937;DHT22;70395;51.382;7.074;2023-07-31T13:08:07;21.60;69.70
80937;DHT22;70395;51.382;7.074;2023-07-31T13:10:33;21.60;69.60
80937;DHT22;70395;51.382;7.074;2023-07-31T13:12:59;21.60;69.60
80937;DHT22;70395;51.382;7.074;2023-07-31T13:15:25;21.50;69.50
80937;DHT22;70395;51.382;7.074;2023-07-31T13:17:50;21.50;69.70
80937;DHT22;70395;51.382;7.074;2023-07-31T13:20:16;21.50;70.10
80937;DHT22;70395;51.382;7.074;2023-07-31T13:22:42;21.40;70.00
80937;DHT22;70395;51.382;7.074;2023-07-31T13:25:08;21.40;70.00
80937;DHT22;70395;51.382;7.074;2023-07-31T13:27:34;21.40;70.20
80937;DHT22;70395;51.382;7.074;2023-07-31T13:30:01;21.40;70.10
80937;DHT22;70395;51.382;7.074;2023-07-31T13:32:27;21.40;70.60
80937;DHT22;70395;51.382;7.074;2023-07-31T13:34:53;21.40;70.40
80937;DHT22;70395;51.382;7.074;2023-07-31T13:37:19;21.30;70.40
80937;DHT22;70395;51.382;7.074;2023-07-31T13:39:45;21.30;70.20
80937;DHT22;70395;51.382;7.074;2023-07-31T13:42:10;21.40;70.00
80937;DHT22;70395;51.382;7.074;2023-07-31T13:44:41;21.40;70.60
80937;DHT22;70395;51.382;7.074;2023-07-31T13:47:08;21.40;70.80
80937;DHT22;70395;51.382;7.074;2023-07-31T13:49:35;21.50;70.60
80937;DHT22;70395;51.382;7.074;2023-07-31T13:52:02;21.50;70.70
80937;DHT22;70395;51.382;7.074;2023-07-31T13:54:28;21.60;70.70
80937;DHT22;70395;51.382;7.074;2023-07-31T13:56:55;21.70;70.60
80937;DHT22;70395;51.382;7.074;2023-07-31T13:59:21;21.80;70.40
80937;DHT22;70395;51.382;7.074;2023-07-31T14:01:47;21.90;70.10
80937;DHT22;70395;51.382;7.074;2023-07-31T14:04:13;21.90;70.00
80937;DHT22;70395;51.382;7.074;2023-07-31T14:06:39;22.00;69.90
80937;DHT22;70395;51.382;7.074;2023-07-31T14:09:05;22.00;69.40
80937;DHT22;70395;51.382;7.074;2023-07-31T14:11:31;22.10;69.40
80937;DHT22;70395;51.382;7.074;2023-07-31T14:13:57;22.20;69.30
80937;DHT22;70395;51.382;7.074;2023-07-31T14:16:23;22.20;69.40
80937;DHT22;70395;51.382;7.074;2023-07-31T14:18:49;22.30;69.40
80937;DHT22;70395;51.382;7.074;2023-07-31T14:21:15;22.40;68.90
80937;DHT22;70395;51.382;7.074;2023-07-31T14:23:41;22.50;68.80
80937;DHT22;70395;51.382;7.074;2023-07-31T14:26:07;22.60;67.70
80937;DHT22;70395;51.382;7.074;2023-07-31T14:28:34;22.70;67.50
80937;DHT22;70395;51.382;7.074;2023-07-31T14:30:59;22.80;67.60
80937;DHT22;70395;51.382;7.074;2023-07-31T14:33:25;22.90;68.40
80937;DHT22;70395;51.382;7.074;2023-07-31T14:35:51;22.90;67.60
80937;DHT22;70395;51.382;7.074;2023-07-31T14:38:17;22.90;66.90
80937;DHT22;70395;51.382;7.074;2023-07-31T14:40:43;22.90;66.30
80937;DHT22;70395;51.382;7.074;2023-07-31T14:43:09;22.90;66.10
80937;DHT22;70395;51.382;7.074;2023-07-31T14:45:35;22.80;65.90
80937;DHT22;70395;51.382;7.074;2023-07-31T14:48:01;22.80;66.20
80937;DHT22;70395;51.382;7.074;2023-07-31T14:50:27;22.70;65.70
80937;DHT22;70395;51.382;7.074;2023-07-31T14:52:52;22.60;66.00
80937;DHT22;70395;51.382;7.074;2023-07-31T14:55:18;22.60;66.50
80937;DHT22;70395;51.382;7.074;2023-07-31T14:57:44;22.60;66.80
80937;DHT22;70395;51.382;7.074;2023-07-31T15:00:11;22.50;67.00
80937;DHT22;70395;51.382;7.074;2023-07-31T15:02:40;22.40;67.40
80937;DHT22;70395;51.382;7.074;2023-07-31T15:05:06;22.30;67.20
80937;DHT22;70395;51.382;7.074;2023-07-31T15:07:33;22.20;67.60
80937;DHT22;70395;51.382;7.074;2023-07-31T15:10:01;22.20;67.40
80937;DHT22;70395;51.382;7.074;2023-07-31T15:12:27;22.10;67.50
80937;DHT22;70395;51.382;7.074;2023-07-31T15:14:54;22.10;67.80
80937;DHT22;70395;51.382;7.074;2023-07-31T15:17:19;22.00;67.80
80937;DHT22;70395;51.382;7.074;2023-07-31T15:19:46;22.00;68.20
80937;DHT22;70395;51.382;7.074;2023-07-31T15:22:12;22.00;68.10
80937;DHT22;70395;51.382;7.074;2023-07-31T15:24:37;22.00;67.70
80937;DHT22;70395;51.382;7.074;2023-07-31T15:27:03;21.90;67.90
80937;DHT22;70395;51.382;7.074;2023-07-31T15:29:30;21.90;68.70
80937;DHT22;70395;51.382;7.074;2023-07-31T15:31:56;21.90;68.10
80937;DHT22;70395;51.382;7.074;2023-07-31T15:34:22;21.90;67.90